Share

Cocos Island, Australian Islands

Cocos (Keeling) Island International (YPCC) Elev 10 ft | 12.19 °S, 96.83 °E | Change Station

Current weather conditions updated 40 minutes ago

Clear
Clear
84 °F
Feels Like 94 °F
N
12
Wind Variable Wind from North
Sunrise 6:08 AM
Sunset 5:54 PM
Moon Waning Gibbous

Tomorrow is forecast to be Cooler than today. A few thunderstorms possible.

Pressure 29.80 in
Visibility 6.2 miles
Clouds
Heat Index 94 °F
Dew Point 77 °F
Humidity 79%
Rainfall 0.00 in
Snow Depth Not available.
UV Not available.
Pollen Not available.
Air Quality Not available.
Flu Activity Not available.
METAR YPCC 211430Z AUTO 35010KT 9999 // NCD 29/25 Q1009

More Conditions Fewer Conditions

Pressure 29.80 in
Visibility 6.2 miles
Clouds
Heat Index 94 °F
Dew Point 77 °F
Humidity 79%
Rainfall 0.00 in
Snow Depth Not available.
UV Not available.
Pollen Not available.
Air Quality Not available.
Flu Activity Not available.
METAR YPCC 211430Z AUTO 35010KT 9999 // NCD 29/25 Q1009

More Conditions Fewer Conditions

10-Day Weather Forecast

Almanac

Astronomy

Apr. 21, 2014 Rise Set
Actual Time 6:08 AM CCT 5:54 PM CCT
Civil Twilight 5:46 AM CCT 6:16 PM CCT
Nautical Twilight 5:21 AM CCT 6:41 PM CCT
Astronomical Twilight 4:56 AM CCT 7:05 PM CCT
Moon 11:27 PM CCT 11:28 AM CCT
Length of Visible Light 12h 29m
Length of Day
11h 46m
Tomorrow will be 0m 36s shorter.
Waning Gibbous, 58% of the Moon is Illuminated
Today
Waning Gibbous
Apr 22
Last Quarter
Apr 29
New
May 6
First Quarter
May 14
Full

Today's Extremes

Country Highs Country Lows

Community

  • Bright Eyes
    Bright Eyes
  • Snowy Robin
    Snowy Robin
  • Spring Crocus
    Spring Crocus
  • Sun Pillar and Geese
    Sun Pillar and Geese
  • Showers on the Way
    Showers on the Way

WunderPhotos

Upload Photos

1,703,657 photos uploaded!

Nearby

Snow Depth

Not available.

Coastal Water Temperatures

Place Temperature
No Stations Reporting

Earthquake Activity

City Distance Mag. Time & Date
No recent earthquake activity has been reported nearby.
Minimum magnitude displayed is 2.5.

Nearby Weather Stations

There are no personal weather stations in this area.

What do you think?

We're not finished. Please let us know what you like, what you don't like, and what you are still missing.